sensor_id;sensor_type;location;lat;lon;timestamp;P1;durP1;ratioP1;P2;durP2;ratioP2
16524;SDS011;8375;33.594;-117.718;2023-02-01T00:01:24;1.27;;;0.70;;
16524;SDS011;8375;33.594;-117.718;2023-02-01T00:03:55;1.47;;;0.47;;
16524;SDS011;8375;33.594;-117.718;2023-02-01T00:06:24;2.97;;;0.80;;
16524;SDS011;8375;33.594;-117.718;2023-02-01T00:08:53;1.70;;;0.50;;
16524;SDS011;8375;33.594;-117.718;2023-02-01T00:11:23;2.27;;;0.80;;
16524;SDS011;8375;33.594;-117.718;2023-02-01T00:13:52;2.87;;;1.13;;
16524;SDS011;8375;33.594;-117.718;2023-02-01T00:16:21;3.83;;;0.90;;
16524;SDS011;8375;33.594;-117.718;2023-02-01T00:18:58;2.70;;;0.70;;
16524;SDS011;8375;33.594;-117.718;2023-02-01T00:21:30;1.10;;;0.50;;
16524;SDS011;8375;33.594;-117.718;2023-02-01T00:23:59;2.27;;;0.57;;
16524;SDS011;8375;33.594;-117.718;2023-02-01T00:26:30;2.17;;;0.43;;
16524;SDS011;8375;33.594;-117.718;2023-02-01T00:29:00;1.73;;;0.60;;
16524;SDS011;8375;33.594;-117.718;2023-02-01T00:31:29;1.50;;;0.70;;
16524;SDS011;8375;33.594;-117.718;2023-02-01T00:33:58;4.57;;;0.70;;
16524;SDS011;8375;33.594;-117.718;2023-02-01T00:36:28;1.83;;;0.60;;
16524;SDS011;8375;33.594;-117.718;2023-02-01T00:38:57;3.20;;;0.83;;
16524;SDS011;8375;33.594;-117.718;2023-02-01T00:41:26;0.60;;;0.50;;
16524;SDS011;8375;33.594;-117.718;2023-02-01T00:43:55;0.77;;;0.50;;
16524;SDS011;8375;33.594;-117.718;2023-02-01T00:46:24;2.10;;;0.70;;
16524;SDS011;8375;33.594;-117.718;2023-02-01T00:48:53;0.90;;;0.50;;
16524;SDS011;8375;33.594;-117.718;2023-02-01T00:51:24;1.07;;;0.60;;
16524;SDS011;8375;33.594;-117.718;2023-02-01T00:53:53;0.83;;;0.60;;
16524;SDS011;8375;33.594;-117.718;2023-02-01T00:56:22;3.63;;;0.53;;
16524;SDS011;8375;33.594;-117.718;2023-02-01T00:58:53;1.83;;;0.90;;
16524;SDS011;8375;33.594;-117.718;2023-02-01T01:01:22;2.00;;;0.53;;
16524;SDS011;8375;33.594;-117.718;2023-02-01T01:03:53;0.90;;;0.47;;
16524;SDS011;8375;33.594;-117.718;2023-02-01T01:06:25;1.63;;;0.70;;
16524;SDS011;8375;33.594;-117.718;2023-02-01T01:08:56;0.77;;;0.40;;
16524;SDS011;8375;33.594;-117.718;2023-02-01T01:11:29;0.50;;;0.50;;
16524;SDS011;8375;33.594;-117.718;2023-02-01T01:14:00;2.13;;;0.80;;
16524;SDS011;8375;33.594;-117.718;2023-02-01T01:16:31;0.77;;;0.70;;
16524;SDS011;8375;33.594;-117.718;2023-02-01T01:19:02;1.63;;;0.80;;
16524;SDS011;8375;33.594;-117.718;2023-02-01T01:21:33;3.13;;;0.60;;
16524;SDS011;8375;33.594;-117.718;2023-02-01T01:24:02;1.47;;;0.60;;
16524;SDS011;8375;33.594;-117.718;2023-02-01T01:26:31;2.23;;;0.60;;
16524;SDS011;8375;33.594;-117.718;2023-02-01T01:28:59;1.77;;;0.80;;
16524;SDS011;8375;33.594;-117.718;2023-02-01T01:31:29;1.53;;;0.73;;
16524;SDS011;8375;33.594;-117.718;2023-02-01T01:33:58;1.87;;;0.63;;
16524;SDS011;8375;33.594;-117.718;2023-02-01T01:36:27;3.13;;;0.70;;
16524;SDS011;8375;33.594;-117.718;2023-02-01T01:38:58;2.13;;;0.80;;
16524;SDS011;8375;33.594;-117.718;2023-02-01T01:41:28;0.97;;;0.50;;
16524;SDS011;8375;33.594;-117.718;2023-02-01T01:43:59;3.33;;;0.80;;
16524;SDS011;8375;33.594;-117.718;2023-02-01T01:46:29;1.70;;;0.50;;
16524;SDS011;8375;33.594;-117.718;2023-02-01T01:49:00;2.87;;;0.70;;
16524;SDS011;8375;33.594;-117.718;2023-02-01T01:51:33;0.63;;;0.47;;
16524;SDS011;8375;33.594;-117.718;2023-02-01T01:54:08;2.97;;;1.00;;
16524;SDS011;8375;33.594;-117.718;2023-02-01T01:56:43;1.07;;;0.60;;
16524;SDS011;8375;33.594;-117.718;2023-02-01T01:59:14;3.50;;;0.80;;
16524;SDS011;8375;33.594;-117.718;2023-02-01T02:01:44;2.83;;;0.70;;
16524;SDS011;8375;33.594;-117.718;2023-02-01T02:04:14;2.57;;;0.80;;
16524;SDS011;8375;33.594;-117.718;2023-02-01T02:06:45;4.17;;;0.83;;
16524;SDS011;8375;33.594;-117.718;2023-02-01T02:09:20;4.20;;;0.70;;
16524;SDS011;8375;33.594;-117.718;2023-02-01T02:11:49;3.23;;;0.80;;
16524;SDS011;8375;33.594;-117.718;2023-02-01T02:14:18;2.50;;;0.80;;
16524;SDS011;8375;33.594;-117.718;2023-02-01T02:16:52;1.77;;;0.70;;
16524;SDS011;8375;33.594;-117.718;2023-02-01T02:19:35;0.60;;;0.50;;
16524;SDS011;8375;33.594;-117.718;2023-02-01T02:22:35;4.17;;;0.90;;
16524;SDS011;8375;33.594;-117.718;2023-02-01T02:28:36;7.17;;;1.00;;
16524;SDS011;8375;33.594;-117.718;2023-02-01T02:31:36;1.40;;;0.70;;
16524;SDS011;8375;33.594;-117.718;2023-02-01T02:34:16;1.73;;;0.50;;
16524;SDS011;8375;33.594;-117.718;2023-02-01T02:36:54;2.83;;;0.87;;
16524;SDS011;8375;33.594;-117.718;2023-02-01T02:39:34;1.80;;;0.80;;
16524;SDS011;8375;33.594;-117.718;2023-02-01T02:42:12;1.27;;;0.70;;
16524;SDS011;8375;33.594;-117.718;2023-02-01T02:45:06;2.67;;;1.00;;
16524;SDS011;8375;33.594;-117.718;2023-02-01T02:47:58;3.37;;;0.90;;
16524;SDS011;8375;33.594;-117.718;2023-02-01T02:50:38;1.27;;;0.77;;
16524;SDS011;8375;33.594;-117.718;2023-02-01T02:53:29;4.53;;;0.90;;
16524;SDS011;8375;33.594;-117.718;2023-02-01T02:56:18;2.90;;;0.70;;
16524;SDS011;8375;33.594;-117.718;2023-02-01T02:59:07;2.30;;;0.97;;
16524;SDS011;8375;33.594;-117.718;2023-02-01T03:01:55;1.27;;;0.70;;
16524;SDS011;8375;33.594;-117.718;2023-02-01T03:04:41;1.67;;;0.70;;
16524;SDS011;8375;33.594;-117.718;2023-02-01T03:07:14;1.13;;;0.57;;
16524;SDS011;8375;33.594;-117.718;2023-02-01T03:10:05;1.17;;;0.67;;
16524;SDS011;8375;33.594;-117.718;2023-02-01T03:12:44;1.27;;;0.80;;
16524;SDS011;8375;33.594;-117.718;2023-02-01T03:15:23;3.03;;;0.70;;
16524;SDS011;8375;33.594;-117.718;2023-02-01T03:17:59;2.20;;;0.70;;
16524;SDS011;8375;33.594;-117.718;2023-02-01T03:20:33;7.20;;;1.10;;
16524;SDS011;8375;33.594;-117.718;2023-02-01T03:23:06;0.90;;;0.60;;
16524;SDS011;8375;33.594;-117.718;2023-02-01T03:25:37;3.03;;;0.90;;
16524;SDS011;8375;33.594;-117.718;2023-02-01T03:28:08;2.80;;;0.73;;
16524;SDS011;8375;33.594;-117.718;2023-02-01T03:30:38;1.80;;;0.47;;
16524;SDS011;8375;33.594;-117.718;2023-02-01T03:33:11;2.07;;;0.63;;
16524;SDS011;8375;33.594;-117.718;2023-02-01T03:35:50;1.77;;;0.90;;
16524;SDS011;8375;33.594;-117.718;2023-02-01T03:38:29;1.30;;;0.60;;
16524;SDS011;8375;33.594;-117.718;2023-02-01T03:41:02;2.50;;;0.60;;
16524;SDS011;8375;33.594;-117.718;2023-02-01T03:43:39;1.57;;;0.70;;
16524;SDS011;8375;33.594;-117.718;2023-02-01T03:46:17;3.57;;;0.80;;
16524;SDS011;8375;33.594;-117.718;2023-02-01T03:48:51;2.13;;;0.73;;
16524;SDS011;8375;33.594;-117.718;2023-02-01T03:51:22;3.53;;;0.87;;
16524;SDS011;8375;33.594;-117.718;2023-02-01T03:53:54;1.23;;;0.70;;
16524;SDS011;8375;33.594;-117.718;2023-02-01T03:56:24;3.37;;;0.63;;
16524;SDS011;8375;33.594;-117.718;2023-02-01T03:58:57;2.10;;;0.80;;
16524;SDS011;8375;33.594;-117.718;2023-02-01T04:01:26;1.20;;;0.63;;
16524;SDS011;8375;33.594;-117.718;2023-02-01T04:03:56;1.23;;;0.60;;
16524;SDS011;8375;33.594;-117.718;2023-02-01T04:06:25;1.93;;;0.60;;
16524;SDS011;8375;33.594;-117.718;2023-02-01T04:08:55;2.37;;;0.70;;
16524;SDS011;8375;33.594;-117.718;2023-02-01T04:11:24;1.70;;;0.70;;
16524;SDS011;8375;33.594;-117.718;2023-02-01T04:13:54;2.93;;;0.80;;
16524;SDS011;8375;33.594;-117.718;2023-02-01T04:16:23;5.17;;;0.83;;
16524;SDS011;8375;33.594;-117.718;2023-02-01T04:18:52;2.70;;;0.80;;
16524;SDS011;8375;33.594;-117.718;2023-02-01T04:21:20;1.77;;;0.93;;
16524;SDS011;8375;33.594;-117.718;2023-02-01T04:23:49;4.73;;;1.00;;
16524;SDS011;8375;33.594;-117.718;2023-02-01T04:26:19;2.37;;;0.93;;
16524;SDS011;8375;33.594;-117.718;2023-02-01T04:28:48;3.77;;;0.70;;
16524;SDS011;8375;33.594;-117.718;2023-02-01T04:31:18;2.17;;;0.70;;
16524;SDS011;8375;33.594;-117.718;2023-02-01T04:33:51;3.77;;;0.80;;
16524;SDS011;8375;33.594;-117.718;2023-02-01T04:36:20;1.13;;;0.70;;
16524;SDS011;8375;33.594;-117.718;2023-02-01T04:38:49;2.53;;;0.70;;
16524;SDS011;8375;33.594;-117.718;2023-02-01T04:41:20;1.47;;;0.80;;
16524;SDS011;8375;33.594;-117.718;2023-02-01T04:43:49;4.03;;;0.87;;
16524;SDS011;8375;33.594;-117.718;2023-02-01T04:46:18;2.40;;;1.53;;
16524;SDS011;8375;33.594;-117.718;2023-02-01T04:48:47;2.30;;;1.67;;
16524;SDS011;8375;33.594;-117.718;2023-02-01T04:51:16;3.17;;;1.57;;
16524;SDS011;8375;33.594;-117.718;2023-02-01T04:53:44;3.50;;;1.30;;
16524;SDS011;8375;33.594;-117.718;2023-02-01T04:56:13;2.90;;;1.53;;
16524;SDS011;8375;33.594;-117.718;2023-02-01T04:58:43;2.00;;;1.20;;
16524;SDS011;8375;33.594;-117.718;2023-02-01T05:01:12;3.33;;;1.47;;
16524;SDS011;8375;33.594;-117.718;2023-02-01T05:03:41;3.90;;;1.63;;
16524;SDS011;8375;33.594;-117.718;2023-02-01T05:06:09;4.73;;;1.40;;
16524;SDS011;8375;33.594;-117.718;2023-02-01T05:08:38;3.40;;;1.20;;
16524;SDS011;8375;33.594;-117.718;2023-02-01T05:11:07;2.43;;;1.07;;
16524;SDS011;8375;33.594;-117.718;2023-02-01T05:13:58;2.07;;;1.10;;
16524;SDS011;8375;33.594;-117.718;2023-02-01T05:16:26;1.20;;;1.10;;
16524;SDS011;8375;33.594;-117.718;2023-02-01T05:18:55;3.43;;;1.17;;
16524;SDS011;8375;33.594;-117.718;2023-02-01T05:21:23;3.57;;;0.90;;
16524;SDS011;8375;33.594;-117.718;2023-02-01T05:23:52;1.97;;;1.10;;
16524;SDS011;8375;33.594;-117.718;2023-02-01T05:26:38;5.63;;;0.90;;
16524;SDS011;8375;33.594;-117.718;2023-02-01T05:29:09;6.27;;;0.80;;
16524;SDS011;8375;33.594;-117.718;2023-02-01T05:31:38;1.20;;;0.70;;
16524;SDS011;8375;33.594;-117.718;2023-02-01T05:34:06;3.23;;;1.10;;
16524;SDS011;8375;33.594;-117.718;2023-02-01T05:36:35;2.87;;;1.20;;
16524;SDS011;8375;33.594;-117.718;2023-02-01T05:39:04;3.13;;;0.90;;
16524;SDS011;8375;33.594;-117.718;2023-02-01T05:41:32;2.00;;;1.03;;
16524;SDS011;8375;33.594;-117.718;2023-02-01T05:44:01;2.23;;;0.90;;
16524;SDS011;8375;33.594;-117.718;2023-02-01T05:46:32;2.73;;;1.17;;
16524;SDS011;8375;33.594;-117.718;2023-02-01T05:49:01;1.10;;;0.80;;
16524;SDS011;8375;33.594;-117.718;2023-02-01T05:51:29;1.70;;;1.00;;
16524;SDS011;8375;33.594;-117.718;2023-02-01T05:57:00;1.80;;;0.90;;
16524;SDS011;8375;33.594;-117.718;2023-02-01T05:59:31;2.67;;;1.10;;
16524;SDS011;8375;33.594;-117.718;2023-02-01T06:02:10;5.80;;;1.17;;
16524;SDS011;8375;33.594;-117.718;2023-02-01T06:04:41;2.53;;;0.80;;
16524;SDS011;8375;33.594;-117.718;2023-02-01T06:07:10;1.20;;;0.70;;
16524;SDS011;8375;33.594;-117.718;2023-02-01T06:09:39;1.00;;;0.67;;
16524;SDS011;8375;33.594;-117.718;2023-02-01T06:12:08;0.63;;;0.60;;
16524;SDS011;8375;33.594;-117.718;2023-02-01T06:14:37;3.77;;;1.10;;
16524;SDS011;8375;33.594;-117.718;2023-02-01T06:17:06;3.07;;;0.60;;
16524;SDS011;8375;33.594;-117.718;2023-02-01T06:19:36;0.83;;;0.40;;
16524;SDS011;8375;33.594;-117.718;2023-02-01T06:22:06;2.43;;;0.80;;
16524;SDS011;8375;33.594;-117.718;2023-02-01T06:24:34;1.70;;;0.67;;
16524;SDS011;8375;33.594;-117.718;2023-02-01T06:27:03;1.50;;;0.60;;
16524;SDS011;8375;33.594;-117.718;2023-02-01T06:29:32;2.27;;;0.87;;
16524;SDS011;8375;33.594;-117.718;2023-02-01T06:32:01;2.00;;;0.63;;
16524;SDS011;8375;33.594;-117.718;2023-02-01T06:34:31;2.97;;;0.87;;
16524;SDS011;8375;33.594;-117.718;2023-02-01T06:37:00;3.20;;;0.90;;
16524;SDS011;8375;33.594;-117.718;2023-02-01T06:39:29;1.63;;;0.60;;
16524;SDS011;8375;33.594;-117.718;2023-02-01T06:41:57;2.53;;;0.90;;
16524;SDS011;8375;33.594;-117.718;2023-02-01T06:44:26;3.93;;;1.10;;
16524;SDS011;8375;33.594;-117.718;2023-02-01T06:46:55;0.70;;;0.57;;
16524;SDS011;8375;33.594;-117.718;2023-02-01T06:49:24;4.27;;;0.73;;
16524;SDS011;8375;33.594;-117.718;2023-02-01T06:51:54;3.70;;;1.17;;
16524;SDS011;8375;33.594;-117.718;2023-02-01T06:54:23;5.57;;;1.40;;
16524;SDS011;8375;33.594;-117.718;2023-02-01T06:56:51;2.90;;;1.63;;
16524;SDS011;8375;33.594;-117.718;2023-02-01T06:59:20;3.23;;;2.00;;
16524;SDS011;8375;33.594;-117.718;2023-02-01T07:01:49;4.13;;;2.10;;
16524;SDS011;8375;33.594;-117.718;2023-02-01T07:04:18;3.93;;;1.63;;
16524;SDS011;8375;33.594;-117.718;2023-02-01T07:06:47;5.03;;;1.97;;
16524;SDS011;8375;33.594;-117.718;2023-02-01T07:09:18;3.53;;;1.90;;
16524;SDS011;8375;33.594;-117.718;2023-02-01T07:11:48;4.33;;;2.03;;
16524;SDS011;8375;33.594;-117.718;2023-02-01T07:14:17;2.67;;;1.60;;
16524;SDS011;8375;33.594;-117.718;2023-02-01T07:16:46;3.00;;;1.80;;
16524;SDS011;8375;33.594;-117.718;2023-02-01T07:19:18;4.23;;;2.07;;
16524;SDS011;8375;33.594;-117.718;2023-02-01T07:21:50;4.93;;;2.10;;
16524;SDS011;8375;33.594;-117.718;2023-02-01T07:24:20;2.40;;;1.27;;
16524;SDS011;8375;33.594;-117.718;2023-02-01T07:26:51;1.43;;;1.07;;
16524;SDS011;8375;33.594;-117.718;2023-02-01T07:29:19;3.20;;;1.40;;
16524;SDS011;8375;33.594;-117.718;2023-02-01T07:31:48;6.63;;;1.63;;
16524;SDS011;8375;33.594;-117.718;2023-02-01T07:34:17;2.73;;;1.40;;
16524;SDS011;8375;33.594;-117.718;2023-02-01T07:36:45;3.93;;;1.33;;
16524;SDS011;8375;33.594;-117.718;2023-02-01T07:39:14;3.30;;;1.40;;
16524;SDS011;8375;33.594;-117.718;2023-02-01T07:41:45;2.07;;;1.40;;
16524;SDS011;8375;33.594;-117.718;2023-02-01T07:44:14;3.20;;;1.50;;
16524;SDS011;8375;33.594;-117.718;2023-02-01T07:46:48;2.20;;;1.73;;
16524;SDS011;8375;33.594;-117.718;2023-02-01T07:49:16;4.50;;;1.30;;
16524;SDS011;8375;33.594;-117.718;2023-02-01T07:51:45;4.33;;;1.60;;
16524;SDS011;8375;33.594;-117.718;2023-02-01T07:54:14;3.40;;;1.40;;
16524;SDS011;8375;33.594;-117.718;2023-02-01T07:56:44;2.43;;;1.30;;
16524;SDS011;8375;33.594;-117.718;2023-02-01T07:59:13;3.60;;;1.57;;
16524;SDS011;8375;33.594;-117.718;2023-02-01T08:01:42;2.63;;;1.30;;
16524;SDS011;8375;33.594;-117.718;2023-02-01T08:04:11;4.07;;;1.50;;
16524;SDS011;8375;33.594;-117.718;2023-02-01T08:06:40;2.83;;;1.60;;
16524;SDS011;8375;33.594;-117.718;2023-02-01T08:09:09;5.80;;;1.73;;
16524;SDS011;8375;33.594;-117.718;2023-02-01T08:11:38;3.57;;;1.47;;
16524;SDS011;8375;33.594;-117.718;2023-02-01T08:14:08;3.83;;;1.90;;
16524;SDS011;8375;33.594;-117.718;2023-02-01T08:16:37;4.10;;;1.17;;
16524;SDS011;8375;33.594;-117.718;2023-02-01T08:19:05;4.73;;;1.70;;
16524;SDS011;8375;33.594;-117.718;2023-02-01T08:21:34;6.40;;;1.70;;
16524;SDS011;8375;33.594;-117.718;2023-02-01T08:24:06;2.87;;;1.50;;
16524;SDS011;8375;33.594;-117.718;2023-02-01T08:26:36;2.27;;;1.40;;
16524;SDS011;8375;33.594;-117.718;2023-02-01T08:29:06;4.37;;;1.80;;
16524;SDS011;8375;33.594;-117.718;2023-02-01T08:31:38;4.63;;;1.70;;
16524;SDS011;8375;33.594;-117.718;2023-02-01T08:34:08;3.27;;;1.60;;
16524;SDS011;8375;33.594;-117.718;2023-02-01T08:36:37;2.97;;;1.67;;
16524;SDS011;8375;33.594;-117.718;2023-02-01T08:39:06;3.50;;;1.60;;
16524;SDS011;8375;33.594;-117.718;2023-02-01T08:41:36;2.67;;;1.47;;
16524;SDS011;8375;33.594;-117.718;2023-02-01T08:44:05;4.33;;;1.70;;
16524;SDS011;8375;33.594;-117.718;2023-02-01T08:46:35;3.80;;;1.67;;
16524;SDS011;8375;33.594;-117.718;2023-02-01T08:49:04;2.17;;;1.20;;
16524;SDS011;8375;33.594;-117.718;2023-02-01T08:51:33;3.13;;;1.30;;
16524;SDS011;8375;33.594;-117.718;2023-02-01T08:54:01;2.80;;;1.20;;
16524;SDS011;8375;33.594;-117.718;2023-02-01T08:56:30;2.23;;;1.40;;
16524;SDS011;8375;33.594;-117.718;2023-02-01T08:58:59;5.00;;;1.20;;
16524;SDS011;8375;33.594;-117.718;2023-02-01T09:01:29;3.47;;;1.60;;
16524;SDS011;8375;33.594;-117.718;2023-02-01T09:03:58;1.97;;;1.17;;
16524;SDS011;8375;33.594;-117.718;2023-02-01T09:06:26;2.93;;;1.40;;
16524;SDS011;8375;33.594;-117.718;2023-02-01T09:08:55;3.10;;;1.60;;
16524;SDS011;8375;33.594;-117.718;2023-02-01T09:11:24;3.43;;;1.77;;
16524;SDS011;8375;33.594;-117.718;2023-02-01T09:13:53;2.33;;;1.50;;
16524;SDS011;8375;33.594;-117.718;2023-02-01T09:16:21;2.33;;;1.33;;
16524;SDS011;8375;33.594;-117.718;2023-02-01T09:18:51;3.77;;;1.90;;
16524;SDS011;8375;33.594;-117.718;2023-02-01T09:21:20;4.17;;;1.47;;
16524;SDS011;8375;33.594;-117.718;2023-02-01T09:23:50;3.33;;;1.40;;
16524;SDS011;8375;33.594;-117.718;2023-02-01T09:26:19;2.47;;;1.57;;
16524;SDS011;8375;33.594;-117.718;2023-02-01T09:28:47;3.77;;;1.53;;
16524;SDS011;8375;33.594;-117.718;2023-02-01T09:31:16;3.33;;;1.10;;
16524;SDS011;8375;33.594;-117.718;2023-02-01T09:33:45;3.30;;;1.30;;
16524;SDS011;8375;33.594;-117.718;2023-02-01T09:36:15;3.47;;;1.50;;
16524;SDS011;8375;33.594;-117.718;2023-02-01T09:38:45;2.30;;;1.40;;
16524;SDS011;8375;33.594;-117.718;2023-02-01T09:41:17;3.13;;;1.33;;
16524;SDS011;8375;33.594;-117.718;2023-02-01T09:43:57;4.23;;;1.40;;
16524;SDS011;8375;33.594;-117.718;2023-02-01T09:46:35;1.20;;;1.10;;
16524;SDS011;8375;33.594;-117.718;2023-02-01T09:49:04;2.33;;;1.37;;
16524;SDS011;8375;33.594;-117.718;2023-02-01T09:51:41;2.20;;;1.60;;
16524;SDS011;8375;33.594;-117.718;2023-02-01T09:54:13;3.53;;;1.40;;
16524;SDS011;8375;33.594;-117.718;2023-02-01T10:06:56;5.83;;;1.20;;
16524;SDS011;8375;33.594;-117.718;2023-02-01T10:09:36;2.13;;;1.10;;
16524;SDS011;8375;33.594;-117.718;2023-02-01T10:15:22;2.90;;;1.10;;
16524;SDS011;8375;33.594;-117.718;2023-02-01T10:18:02;1.80;;;1.27;;
16524;SDS011;8375;33.594;-117.718;2023-02-01T10:20:56;2.90;;;1.17;;
16524;SDS011;8375;33.594;-117.718;2023-02-01T10:23:38;1.40;;;1.07;;
16524;SDS011;8375;33.594;-117.718;2023-02-01T10:26:26;2.67;;;0.90;;
16524;SDS011;8375;33.594;-117.718;2023-02-01T10:29:00;2.27;;;1.00;;
16524;SDS011;8375;33.594;-117.718;2023-02-01T10:31:32;2.00;;;1.17;;
16524;SDS011;8375;33.594;-117.718;2023-02-01T10:34:07;1.40;;;0.90;;
16524;SDS011;8375;33.594;-117.718;2023-02-01T10:36:46;1.67;;;0.90;;
16524;SDS011;8375;33.594;-117.718;2023-02-01T10:39:22;1.70;;;0.90;;
16524;SDS011;8375;33.594;-117.718;2023-02-01T10:41:51;2.20;;;0.70;;
16524;SDS011;8375;33.594;-117.718;2023-02-01T10:44:23;1.47;;;0.90;;
16524;SDS011;8375;33.594;-117.718;2023-02-01T10:46:55;1.50;;;0.90;;
16524;SDS011;8375;33.594;-117.718;2023-02-01T10:49:26;1.60;;;1.07;;
16524;SDS011;8375;33.594;-117.718;2023-02-01T10:52:02;3.13;;;1.00;;
16524;SDS011;8375;33.594;-117.718;2023-02-01T10:54:41;1.10;;;0.80;;
16524;SDS011;8375;33.594;-117.718;2023-02-01T10:57:20;3.03;;;1.10;;
16524;SDS011;8375;33.594;-117.718;2023-02-01T10:59:51;1.57;;;0.90;;
16524;SDS011;8375;33.594;-117.718;2023-02-01T11:02:21;2.93;;;1.50;;
16524;SDS011;8375;33.594;-117.718;2023-02-01T11:04:58;2.67;;;1.33;;
16524;SDS011;8375;33.594;-117.718;2023-02-01T11:07:29;1.63;;;1.43;;
16524;SDS011;8375;33.594;-117.718;2023-02-01T11:10:00;2.53;;;1.43;;
16524;SDS011;8375;33.594;-117.718;2023-02-01T11:12:30;5.27;;;1.70;;
16524;SDS011;8375;33.594;-117.718;2023-02-01T11:15:01;2.70;;;1.57;;
16524;SDS011;8375;33.594;-117.718;2023-02-01T11:17:42;1.77;;;1.30;;
16524;SDS011;8375;33.594;-117.718;2023-02-01T11:20:13;1.57;;;1.20;;
16524;SDS011;8375;33.594;-117.718;2023-02-01T11:22:46;3.20;;;1.53;;
16524;SDS011;8375;33.594;-117.718;2023-02-01T11:25:17;2.23;;;1.20;;
16524;SDS011;8375;33.594;-117.718;2023-02-01T11:27:48;4.47;;;1.73;;
16524;SDS011;8375;33.594;-117.718;2023-02-01T11:30:18;3.57;;;1.40;;
16524;SDS011;8375;33.594;-117.718;2023-02-01T11:32:55;1.57;;;1.27;;
16524;SDS011;8375;33.594;-117.718;2023-02-01T11:35:23;2.03;;;1.03;;
16524;SDS011;8375;33.594;-117.718;2023-02-01T11:37:57;2.23;;;1.23;;
16524;SDS011;8375;33.594;-117.718;2023-02-01T11:40:29;2.40;;;0.80;;
16524;SDS011;8375;33.594;-117.718;2023-02-01T11:43:07;2.60;;;1.10;;
16524;SDS011;8375;33.594;-117.718;2023-02-01T11:45:41;2.10;;;1.20;;
16524;SDS011;8375;33.594;-117.718;2023-02-01T11:48:20;1.80;;;0.90;;
16524;SDS011;8375;33.594;-117.718;2023-02-01T11:50:55;2.50;;;1.20;;
16524;SDS011;8375;33.594;-117.718;2023-02-01T11:53:56;1.10;;;1.00;;
16524;SDS011;8375;33.594;-117.718;2023-02-01T11:56:36;3.47;;;1.17;;
16524;SDS011;8375;33.594;-117.718;2023-02-01T11:59:12;1.80;;;1.00;;
16524;SDS011;8375;33.594;-117.718;2023-02-01T12:02:19;3.43;;;0.90;;
16524;SDS011;8375;33.594;-117.718;2023-02-01T12:05:25;2.10;;;1.10;;
16524;SDS011;8375;33.594;-117.718;2023-02-01T12:11:28;1.50;;;0.90;;
16524;SDS011;8375;33.594;-117.718;2023-02-01T12:14:11;1.57;;;0.97;;
16524;SDS011;8375;33.594;-117.718;2023-02-01T12:16:54;2.40;;;0.87;;
16524;SDS011;8375;33.594;-117.718;2023-02-01T12:19:38;2.97;;;0.93;;
16524;SDS011;8375;33.594;-117.718;2023-02-01T12:22:32;1.70;;;1.10;;
16524;SDS011;8375;33.594;-117.718;2023-02-01T12:25:20;6.43;;;1.53;;
16524;SDS011;8375;33.594;-117.718;2023-02-01T12:28:03;1.00;;;0.80;;
16524;SDS011;8375;33.594;-117.718;2023-02-01T12:31:02;1.97;;;1.00;;
16524;SDS011;8375;33.594;-117.718;2023-02-01T12:33:57;1.63;;;0.80;;
16524;SDS011;8375;33.594;-117.718;2023-02-01T12:36:40;1.87;;;1.00;;
16524;SDS011;8375;33.594;-117.718;2023-02-01T12:39:16;2.00;;;0.90;;
16524;SDS011;8375;33.594;-117.718;2023-02-01T12:41:53;1.10;;;1.00;;
16524;SDS011;8375;33.594;-117.718;2023-02-01T12:44:37;5.87;;;1.00;;
16524;SDS011;8375;33.594;-117.718;2023-02-01T12:47:14;1.40;;;0.90;;
16524;SDS011;8375;33.594;-117.718;2023-02-01T12:49:50;2.73;;;1.37;;
16524;SDS011;8375;33.594;-117.718;2023-02-01T12:52:27;3.23;;;1.50;;
16524;SDS011;8375;33.594;-117.718;2023-02-01T12:55:03;3.17;;;1.20;;
16524;SDS011;8375;33.594;-117.718;2023-02-01T12:57:38;5.03;;;1.90;;
16524;SDS011;8375;33.594;-117.718;2023-02-01T13:00:14;2.20;;;1.10;;
16524;SDS011;8375;33.594;-117.718;2023-02-01T13:02:52;1.87;;;1.10;;
16524;SDS011;8375;33.594;-117.718;2023-02-01T13:05:28;2.53;;;1.23;;
16524;SDS011;8375;33.594;-117.718;2023-02-01T13:08:02;8.57;;;1.30;;
16524;SDS011;8375;33.594;-117.718;2023-02-01T13:10:36;4.67;;;1.40;;
16524;SDS011;8375;33.594;-117.718;2023-02-01T13:13:10;1.77;;;1.20;;
16524;SDS011;8375;33.594;-117.718;2023-02-01T13:15:46;1.87;;;1.20;;
16524;SDS011;8375;33.594;-117.718;2023-02-01T13:18:20;1.53;;;1.23;;
16524;SDS011;8375;33.594;-117.718;2023-02-01T13:20:55;2.37;;;1.53;;
16524;SDS011;8375;33.594;-117.718;2023-02-01T13:23:29;3.17;;;1.40;;
16524;SDS011;8375;33.594;-117.718;2023-02-01T13:26:00;5.13;;;1.40;;
16524;SDS011;8375;33.594;-117.718;2023-02-01T13:28:31;3.13;;;1.07;;
16524;SDS011;8375;33.594;-117.718;2023-02-01T13:31:27;1.23;;;1.00;;
16524;SDS011;8375;33.594;-117.718;2023-02-01T13:37:28;3.37;;;1.20;;
16524;SDS011;8375;33.594;-117.718;2023-02-01T13:40:19;1.90;;;0.90;;
16524;SDS011;8375;33.594;-117.718;2023-02-01T13:43:02;1.20;;;0.90;;
16524;SDS011;8375;33.594;-117.718;2023-02-01T13:45:36;2.40;;;0.93;;
16524;SDS011;8375;33.594;-117.718;2023-02-01T13:48:14;1.80;;;0.97;;
16524;SDS011;8375;33.594;-117.718;2023-02-01T13:50:52;2.97;;;0.93;;
16524;SDS011;8375;33.594;-117.718;2023-02-01T13:53:23;2.70;;;1.30;;
16524;SDS011;8375;33.594;-117.718;2023-02-01T13:55:57;2.03;;;1.00;;
16524;SDS011;8375;33.594;-117.718;2023-02-01T13:58:31;2.43;;;0.97;;
16524;SDS011;8375;33.594;-117.718;2023-02-01T14:04:03;2.03;;;0.93;;
16524;SDS011;8375;33.594;-117.718;2023-02-01T14:06:37;1.90;;;1.00;;
16524;SDS011;8375;33.594;-117.718;2023-02-01T14:09:15;2.63;;;1.10;;
16524;SDS011;8375;33.594;-117.718;2023-02-01T14:11:47;2.77;;;1.57;;
16524;SDS011;8375;33.594;-117.718;2023-02-01T14:23:03;1.47;;;0.97;;
16524;SDS011;8375;33.594;-117.718;2023-02-01T14:25:38;3.07;;;1.00;;
16524;SDS011;8375;33.594;-117.718;2023-02-01T14:28:12;1.80;;;0.90;;
16524;SDS011;8375;33.594;-117.718;2023-02-01T14:30:50;2.33;;;1.03;;
16524;SDS011;8375;33.594;-117.718;2023-02-01T14:33:21;1.07;;;0.80;;
16524;SDS011;8375;33.594;-117.718;2023-02-01T14:36:04;3.37;;;0.77;;
16524;SDS011;8375;33.594;-117.718;2023-02-01T14:38:37;1.53;;;0.67;;
16524;SDS011;8375;33.594;-117.718;2023-02-01T14:41:18;1.90;;;0.77;;
16524;SDS011;8375;33.594;-117.718;2023-02-01T14:53:00;1.57;;;0.77;;
16524;SDS011;8375;33.594;-117.718;2023-02-01T14:55:43;0.80;;;0.60;;
16524;SDS011;8375;33.594;-117.718;2023-02-01T14:58:15;1.00;;;0.80;;
16524;SDS011;8375;33.594;-117.718;2023-02-01T15:00:49;1.87;;;0.90;;
16524;SDS011;8375;33.594;-117.718;2023-02-01T15:06:24;0.83;;;0.77;;
16524;SDS011;8375;33.594;-117.718;2023-02-01T15:08:57;1.20;;;0.80;;
16524;SDS011;8375;33.594;-117.718;2023-02-01T15:11:30;4.40;;;0.90;;
16524;SDS011;8375;33.594;-117.718;2023-02-01T15:13:59;2.60;;;0.90;;
16524;SDS011;8375;33.594;-117.718;2023-02-01T15:16:28;1.93;;;1.13;;
16524;SDS011;8375;33.594;-117.718;2023-02-01T15:19:09;1.90;;;0.90;;
16524;SDS011;8375;33.594;-117.718;2023-02-01T15:21:44;3.50;;;1.10;;
16524;SDS011;8375;33.594;-117.718;2023-02-01T15:24:17;2.90;;;1.40;;
16524;SDS011;8375;33.594;-117.718;2023-02-01T15:26:50;2.47;;;1.40;;
16524;SDS011;8375;33.594;-117.718;2023-02-01T15:29:20;3.23;;;1.50;;
16524;SDS011;8375;33.594;-117.718;2023-02-01T15:31:51;1.93;;;1.13;;
16524;SDS011;8375;33.594;-117.718;2023-02-01T15:34:20;3.30;;;1.20;;
16524;SDS011;8375;33.594;-117.718;2023-02-01T15:36:49;3.50;;;1.40;;
16524;SDS011;8375;33.594;-117.718;2023-02-01T15:39:19;2.07;;;1.30;;
16524;SDS011;8375;33.594;-117.718;2023-02-01T15:41:54;1.67;;;1.00;;
16524;SDS011;8375;33.594;-117.718;2023-02-01T15:44:31;2.60;;;1.00;;
16524;SDS011;8375;33.594;-117.718;2023-02-01T15:47:07;2.40;;;1.20;;